Time;durP1;ratioP1;P1;durP2;ratioP2;P2;SDS_P1;SDS_P2;PMS_P1;PMS_P2;Temp;Humidity;BMP_temperature;BMP_pressure;BME280_temperature;BME280_humidity;BME280_pressure;Samples;Min_cycle;Max_cycle;Signal;HPM_P1;HPM_P2
2022/04/06 00:00:59;;;;;;;8.70;2.40;;;;;;;0.45;95.97;98119.93;104688;1274;60532;-66
2022/04/06 00:03:47;;;;;;;7.70;2.30;;;;;;;0.46;96.39;98122.12;104660;1274;75069;-68
2022/04/06 00:06:36;;;;;;;8.40;2.30;;;;;;;0.47;96.58;98120.68;104736;1275;69209;-63
2022/04/06 00:09:39;;;;;;;9.50;2.50;;;;;;;0.49;97.73;98118.44;104688;1274;72387;-63
2022/04/06 00:12:27;;;;;;;8.20;2.20;;;;;;;0.52;97.17;98124.70;104879;1275;59654;-64
2022/04/06 00:15:16;;;;;;;7.40;2.00;;;;;;;0.56;96.89;98128.83;104759;1275;59696;-68
2022/04/06 00:18:06;;;;;;;8.40;2.30;;;;;;;0.59;96.30;98132.98;104550;1276;74577;-67
2022/04/06 00:20:54;;;;;;;8.50;2.20;;;;;;;0.61;96.04;98129.71;104722;1275;68392;-65
2022/04/06 00:23:42;;;;;;;6.90;2.10;;;;;;;0.61;95.82;98130.40;104724;1274;73560;-65
2022/04/06 00:26:30;;;;;;;10.50;2.70;;;;;;;0.59;96.18;98133.69;104708;1274;59668;-63
2022/04/06 00:29:18;;;;;;;8.60;2.90;;;;;;;0.57;95.88;98136.59;104595;1274;59583;-64
2022/04/06 00:32:07;;;;;;;7.90;2.50;;;;;;;0.53;96.24;98139.82;104905;1274;74338;-64
2022/04/06 00:38:05;;;;;;;8.60;2.20;;;;;;;0.50;96.27;98144.88;104917;1274;72662;-65
2022/04/06 00:40:54;;;;;;;10.40;3.00;;;;;;;0.51;97.02;98142.94;104724;1274;59849;-63
2022/04/06 00:43:43;;;;;;;8.70;2.70;;;;;;;0.54;96.79;98143.76;104730;1274;60251;-65
2022/04/06 00:46:31;;;;;;;10.10;3.20;;;;;;;0.59;96.95;98142.40;104750;1274;74270;-64
2022/04/06 00:49:20;;;;;;;11.40;3.00;;;;;;;0.65;96.78;98142.11;104709;1274;69349;-65
2022/04/06 00:52:09;;;;;;;9.00;2.70;;;;;;;0.72;96.83;98142.74;104717;1274;73608;-64
2022/04/06 00:54:59;;;;;;;11.60;2.90;;;;;;;0.79;96.55;98152.07;104731;1276;59666;-66
2022/04/06 00:57:48;;;;;;;6.90;2.50;;;;;;;0.85;96.55;98154.23;104620;1275;59653;-65
2022/04/06 01:00:36;;;;;;;8.90;2.50;;;;;;;0.91;96.55;98157.66;104494;1275;74310;-64
2022/04/06 01:03:24;;;;;;;9.80;2.40;;;;;;;0.94;96.10;98160.48;104721;1274;66886;-64
2022/04/06 01:06:14;;;;;;;7.90;3.00;;;;;;;0.96;96.09;98165.16;104760;1275;73580;-63
2022/04/06 01:09:03;;;;;;;8.70;2.50;;;;;;;0.98;96.03;98161.73;104916;1274;59627;-64
2022/04/06 01:11:52;;;;;;;8.40;2.90;;;;;;;0.99;95.95;98164.15;104907;1275;60383;-65
2022/04/06 01:14:40;;;;;;;8.60;3.00;;;;;;;1.00;96.17;98166.46;104885;1274;73170;-68
2022/04/06 01:17:33;;;;;;;7.70;2.70;;;;;;;1.04;96.18;98169.92;104724;1274;67492;-65
2022/04/06 01:20:22;;;;;;;8.50;3.00;;;;;;;1.06;95.87;98168.89;104656;1275;74299;-64
2022/04/06 01:23:10;;;;;;;11.20;3.40;;;;;;;1.09;95.62;98170.46;104962;1274;59796;-67
2022/04/06 01:25:59;;;;;;;9.30;3.20;;;;;;;1.11;95.50;98168.86;104691;1274;59682;-66
2022/04/06 01:28:47;;;;;;;11.30;3.30;;;;;;;1.12;95.44;98177.57;104764;1274;74434;-65
2022/04/06 01:31:35;;;;;;;10.30;3.30;;;;;;;1.13;95.43;98178.73;104646;1275;68604;-67
2022/04/06 01:34:24;;;;;;;8.90;3.00;;;;;;;1.12;95.27;98180.56;104773;1275;73572;-63
2022/04/06 01:37:14;;;;;;;9.90;2.60;;;;;;;1.07;95.24;98183.48;104737;1275;59623;-64
2022/04/06 01:40:05;;;;;;;9.10;3.00;;;;;;;1.00;95.36;98177.34;104960;1274;61534;-63
2022/04/06 01:42:53;;;;;;;10.40;3.00;;;;;;;0.91;95.00;98181.07;104468;1278;73868;-65
2022/04/06 01:45:41;;;;;;;9.40;3.10;;;;;;;0.81;95.29;98178.45;104550;1278;66971;-65
2022/04/06 01:48:30;;;;;;;10.40;2.90;;;;;;;0.68;95.57;98170.46;104346;1278;74656;-62
2022/04/06 01:54:25;;;;;;;8.00;2.80;;;;;;;0.54;96.44;98180.24;104593;1278;59791;-65
2022/04/06 01:57:15;;;;;;;12.70;2.80;;;;;;;0.48;97.33;98183.59;104350;1278;74186;-65
2022/04/06 02:00:16;;;;;;;10.30;3.50;;;;;;;0.43;97.37;98186.05;104297;1278;67984;-65
2022/04/06 02:03:04;;;;;;;9.00;3.40;;;;;;;0.38;97.76;98186.52;104350;1278;72321;-66
2022/04/06 02:05:53;;;;;;;8.70;3.00;;;;;;;0.33;98.11;98188.90;104318;1278;59648;-65
2022/04/06 02:08:41;;;;;;;8.00;2.30;;;;;;;0.30;98.02;98191.60;104290;1278;59874;-65
2022/04/06 02:11:29;;;;;;;11.00;2.80;;;;;;;0.26;98.14;98191.52;104370;1278;72528;-66
2022/04/06 02:14:18;;;;;;;9.40;2.90;;;;;;;0.21;98.47;98191.48;104405;1278;67388;-65
2022/04/06 02:17:07;;;;;;;10.50;4.00;;;;;;;0.17;98.50;98197.68;104371;1278;71616;-64
2022/04/06 02:19:56;;;;;;;10.30;3.50;;;;;;;0.13;98.18;98201.21;104266;1275;60085;-65
2022/04/06 02:22:45;;;;;;;10.70;3.40;;;;;;;0.12;98.14;98199.53;104607;1274;60326;-66
2022/04/06 02:25:33;;;;;;;11.40;3.20;;;;;;;0.13;98.18;98200.20;104729;1274;74206;-68
2022/04/06 02:28:21;;;;;;;10.50;3.00;;;;;;;0.11;98.11;98202.55;104690;1274;68751;-64
2022/04/06 02:31:09;;;;;;;10.40;3.50;;;;;;;0.10;98.20;98206.80;104688;1275;73247;-64
2022/04/06 02:33:57;;;;;;;11.80;3.40;;;;;;;0.08;97.95;98205.55;104638;1275;59664;-65
2022/04/06 02:36:45;;;;;;;9.70;3.50;;;;;;;0.07;98.06;98207.70;104923;1274;59934;-65
2022/04/06 02:39:33;;;;;;;8.60;3.00;;;;;;;0.08;98.33;98206.61;104823;1275;73351;-64
2022/04/06 02:42:22;;;;;;;11.70;4.30;;;;;;;0.09;98.44;98206.74;104691;1274;67494;-64
2022/04/06 02:45:10;;;;;;;14.60;3.40;;;;;;;0.12;98.55;98208.11;104735;1274;73531;-64
2022/04/06 02:48:05;;;;;;;9.00;3.10;;;;;;;0.13;98.37;98205.63;104867;1274;59808;-65
2022/04/06 02:50:54;;;;;;;13.60;3.30;;;;;;;0.14;98.42;98206.93;104676;1274;60225;-65
2022/04/06 02:53:42;;;;;;;10.90;3.80;;;;;;;0.15;98.22;98205.47;104550;1274;73071;-65
2022/04/06 02:56:31;;;;;;;12.50;3.70;;;;;;;0.15;98.13;98209.67;104743;1274;68652;-65
2022/04/06 02:59:20;;;;;;;10.40;3.50;;;;;;;0.14;98.31;98207.43;104790;1275;73511;-66
2022/04/06 03:02:08;;;;;;;10.50;3.50;;;;;;;0.13;98.55;98211.33;104732;1275;60213;-64
2022/04/06 03:04:58;;;;;;;11.50;3.40;;;;;;;0.11;98.67;98211.27;104749;1274;61642;-63
2022/04/06 03:07:46;;;;;;;12.90;3.50;;;;;;;0.11;98.62;98211.13;104691;1274;73949;-65
2022/04/06 03:10:34;;;;;;;11.50;3.20;;;;;;;0.11;98.97;98211.50;104865;1275;67269;-66
2022/04/06 03:13:23;;;;;;;10.60;3.30;;;;;;;0.09;98.94;98215.23;104674;1278;73250;-67
2022/04/06 03:16:11;;;;;;;6.90;2.60;;;;;;;0.09;99.30;98217.73;104726;1275;59691;-66
2022/04/06 03:18:59;;;;;;;13.60;3.40;;;;;;;0.09;98.83;98225.05;104857;1274;59936;-67
2022/04/06 03:21:47;;;;;;;8.30;3.20;;;;;;;0.09;98.75;98221.52;104689;1274;73987;-68
2022/04/06 03:24:35;;;;;;;9.10;3.10;;;;;;;0.10;98.80;98221.16;104749;1275;68326;-68
2022/04/06 03:27:23;;;;;;;8.90;2.80;;;;;;;0.08;98.83;98221.05;104826;1274;72688;-69
2022/04/06 03:30:12;;;;;;;8.90;2.80;;;;;;;0.08;98.80;98225.80;104780;1275;59981;-65
2022/04/06 03:33:00;;;;;;;9.30;3.00;;;;;;;0.05;98.73;98226.67;104839;1275;59715;-69
2022/04/06 03:35:49;;;;;;;9.30;2.60;;;;;;;0.04;98.64;98226.39;104222;1274;1003686;-70
2022/04/06 03:38:37;;;;;;;12.10;3.70;;;;;;;0.04;99.16;98225.68;104501;1275;67685;-68
2022/04/06 03:41:25;;;;;;;13.40;3.50;;;;;;;0.07;99.05;98229.55;104619;1274;73742;-68
2022/04/06 03:44:13;;;;;;;11.00;3.40;;;;;;;0.10;99.29;98228.11;104566;1275;59735;-67
2022/04/06 03:47:02;;;;;;;11.70;3.10;;;;;;;0.13;99.98;98227.02;104633;1274;59679;-69
2022/04/06 03:49:50;;;;;;;15.50;3.40;;;;;;;0.16;99.94;98221.43;104632;1275;74507;-69
2022/04/06 03:52:38;;;;;;;9.60;3.20;;;;;;;0.20;100.00;98227.13;104585;1274;67624;-67
2022/04/06 03:55:27;;;;;;;9.80;3.20;;;;;;;0.22;100.00;98229.10;104642;1275;73228;-66
2022/04/06 03:58:15;;;;;;;11.30;3.40;;;;;;;0.25;99.96;98236.77;104684;1274;59787;-71
2022/04/06 04:01:03;;;;;;;11.60;3.10;;;;;;;0.26;99.88;98235.77;104676;1275;59556;-68
2022/04/06 04:03:51;;;;;;;9.80;3.20;;;;;;;0.27;99.91;98240.97;104647;1274;72189;-70
2022/04/06 04:06:39;;;;;;;10.50;3.30;;;;;;;0.27;100.00;98241.50;103789;1275;1003809;-68
2022/04/06 04:09:29;;;;;;;9.80;3.70;;;;;;;0.27;99.99;98244.77;104468;1277;73600;-68
2022/04/06 04:12:18;;;;;;;13.60;4.90;;;;;;;0.27;99.95;98245.69;104354;1277;59837;-67
2022/04/06 04:15:07;;;;;;;12.50;3.90;;;;;;;0.29;100.00;98241.21;104339;1278;60087;-71
2022/04/06 04:17:55;;;;;;;11.60;3.80;;;;;;;0.31;100.00;98241.23;104478;1278;74951;-67
2022/04/06 04:20:45;;;;;;;11.10;3.70;;;;;;;0.35;100.00;98245.89;104774;1276;68501;-67
2022/04/06 04:23:33;;;;;;;11.10;3.90;;;;;;;0.39;100.00;98248.76;104760;1278;73831;-68
2022/04/06 04:26:22;;;;;;;12.00;3.70;;;;;;;0.43;100.00;98252.70;104424;1275;59723;-67
2022/04/06 04:29:10;;;;;;;10.60;3.50;;;;;;;0.47;99.80;98252.27;104531;1276;59819;-65
2022/04/06 04:31:58;;;;;;;14.40;3.80;;;;;;;0.50;99.66;98251.02;104719;1276;74627;-66
2022/04/06 04:34:46;;;;;;;12.90;4.20;;;;;;;0.53;99.53;98247.18;104500;1277;67505;-66
2022/04/06 04:37:36;;;;;;;13.80;4.50;;;;;;;0.57;99.30;98248.86;104481;1277;72515;-68
2022/04/06 04:40:24;;;;;;;11.60;4.00;;;;;;;0.60;99.17;98241.09;104484;1274;59788;-68
2022/04/06 04:43:13;;;;;;;11.40;4.20;;;;;;;0.66;99.14;98248.75;104941;1274;60223;-67
2022/04/06 04:46:03;;;;;;;11.30;4.30;;;;;;;0.71;98.97;98245.30;104710;1274;73622;-66
2022/04/06 04:48:52;;;;;;;13.90;4.00;;;;;;;0.79;98.69;98244.05;104611;1275;68854;-68
2022/04/06 04:51:40;;;;;;;15.10;4.90;;;;;;;0.86;98.49;98242.40;104739;1274;74263;-65
2022/04/06 04:54:28;;;;;;;14.30;4.70;;;;;;;0.91;98.13;98244.66;104683;1274;59649;-64
2022/04/06 04:57:17;;;;;;;10.90;4.30;;;;;;;0.99;98.12;98249.18;104946;1274;61296;-70
2022/04/06 05:00:09;;;;;;;13.20;4.80;;;;;;;1.05;97.76;98247.94;104772;1274;73474;-68
2022/04/06 05:02:57;;;;;;;16.50;6.30;;;;;;;1.09;97.33;98256.55;104504;1275;67269;-69
2022/04/06 05:05:48;;;;;;;14.70;4.70;;;;;;;1.13;97.25;98256.11;104926;1274;73738;-69
2022/04/06 05:08:36;;;;;;;14.60;5.50;;;;;;;1.13;96.99;98259.61;104777;1274;59757;-68
2022/04/06 05:11:24;;;;;;;14.70;5.40;;;;;;;1.12;96.68;98259.65;105052;1274;60407;-71
2022/04/06 05:14:13;;;;;;;15.90;5.60;;;;;;;1.12;97.02;98258.23;105121;1274;74967;-71
2022/04/06 05:17:01;;;;;;;14.60;5.50;;;;;;;1.18;97.35;98257.00;105024;1274;66730;-68
2022/04/06 05:19:49;;;;;;;12.60;5.10;;;;;;;1.25;97.04;98262.64;104918;1274;71614;-68
2022/04/06 05:22:37;;;;;;;15.30;5.60;;;;;;;1.33;96.77;98268.22;105090;1274;59792;-68
2022/04/06 05:25:25;;;;;;;15.00;5.60;;;;;;;1.43;96.40;98271.00;104664;1274;59827;-67
2022/04/06 05:28:18;;;;;;;11.70;4.80;;;;;;;1.51;95.95;98270.65;104975;1274;72785;-72
2022/04/06 05:31:07;;;;;;;14.70;5.10;;;;;;;1.62;95.57;98274.81;104803;1274;68397;-69
2022/04/06 05:33:55;;;;;;;12.20;5.20;;;;;;;1.74;95.46;98277.14;104784;1274;74655;-70
2022/04/06 05:36:43;;;;;;;10.20;4.30;;;;;;;1.84;94.80;98268.02;104773;1274;61268;-69
2022/04/06 05:39:31;;;;;;;13.90;5.50;;;;;;;1.91;94.29;98265.98;104541;1275;59663;-71
2022/04/06 05:42:20;;;;;;;15.10;6.10;;;;;;;1.99;93.85;98261.54;104890;1274;73483;-70
2022/04/06 05:45:10;;;;;;;18.80;6.90;;;;;;;2.08;93.47;98261.59;104571;1274;67621;-68
2022/04/06 05:47:58;;;;;;;17.10;6.10;;;;;;;2.17;93.01;98263.25;104643;1274;73214;-71
2022/04/06 05:50:46;;;;;;;15.30;5.60;;;;;;;2.29;92.44;98260.78;104821;1274;59679;-69
2022/04/06 05:53:34;;;;;;;16.50;6.20;;;;;;;2.41;91.85;98264.34;104690;1274;60447;-72
2022/04/06 05:56:22;;;;;;;16.90;6.10;;;;;;;2.47;90.99;98263.20;104749;1274;72610;-69
2022/04/06 05:59:10;;;;;;;18.80;7.20;;;;;;;2.54;90.89;98268.43;104658;1274;68837;-66
2022/04/06 06:01:58;;;;;;;21.40;7.30;;;;;;;2.58;90.46;98265.70;105517;1274;74272;-70
2022/04/06 06:04:47;;;;;;;31.40;7.30;;;;;;;2.61;90.50;98268.48;105016;1274;59652;-72
2022/04/06 06:07:35;;;;;;;37.90;9.40;;;;;;;2.65;90.26;98265.03;104923;1274;60525;-70
2022/04/06 06:10:23;;;;;;;31.80;7.90;;;;;;;2.70;90.17;98269.03;104629;1274;74437;-68
2022/04/06 06:13:11;;;;;;;28.70;8.30;;;;;;;2.73;89.81;98272.82;104645;1274;67337;-68
2022/04/06 06:16:00;;;;;;;34.20;8.60;;;;;;;2.74;89.52;98275.20;104864;1274;72216;-68
2022/04/06 06:18:48;;;;;;;29.80;8.90;;;;;;;2.75;89.85;98277.23;104734;1275;59743;-71
2022/04/06 06:21:37;;;;;;;27.20;7.90;;;;;;;2.78;89.94;98279.52;105059;1274;59732;-67
2022/04/06 06:24:25;;;;;;;31.50;7.90;;;;;;;2.83;89.65;98275.61;104687;1274;73949;-67
2022/04/06 06:27:19;;;;;;;24.30;8.00;;;;;;;2.87;89.38;98278.28;104562;1274;68782;-71
2022/04/06 06:30:13;;;;;;;31.00;7.50;;;;;;;2.93;89.45;98282.41;104614;1274;71586;-68
2022/04/06 06:33:01;;;;;;;28.60;8.50;;;;;;;2.93;89.09;98281.71;104597;1275;59795;-68
2022/04/06 06:35:49;;;;;;;26.30;8.10;;;;;;;3.00;89.28;98281.36;104664;1275;59697;-67
2022/04/06 06:38:38;;;;;;;23.80;7.60;;;;;;;3.11;88.85;98281.74;104653;1274;73616;-67
2022/04/06 06:41:26;;;;;;;21.10;7.10;;;;;;;3.21;88.53;98278.35;104696;1274;69172;-68
2022/04/06 06:44:14;;;;;;;20.30;6.90;;;;;;;3.23;88.04;98277.36;104904;1274;73804;-68
2022/04/06 06:47:04;;;;;;;25.00;8.00;;;;;;;3.22;88.03;98279.69;104660;1274;59671;-66
2022/04/06 06:49:52;;;;;;;14.50;6.40;;;;;;;3.22;88.39;98280.43;105064;1274;59675;-67
2022/04/06 06:52:40;;;;;;;14.60;7.10;;;;;;;3.32;88.36;98278.30;104655;1274;72972;-69
2022/04/06 06:55:34;;;;;;;14.80;7.80;;;;;;;3.42;88.20;98282.75;104618;1275;67731;-67
2022/04/06 06:58:22;;;;;;;15.70;7.20;;;;;;;3.48;87.23;98279.11;104722;1274;74629;-70
2022/04/06 07:01:11;;;;;;;16.30;6.90;;;;;;;3.49;87.20;98280.48;104953;1274;59922;-67
2022/04/06 07:03:59;;;;;;;17.80;6.60;;;;;;;3.58;87.12;98278.23;104681;1274;59635;-67
2022/04/06 07:06:49;;;;;;;14.10;6.70;;;;;;;3.66;86.47;98276.02;104600;1275;73877;-68
2022/04/06 07:09:38;;;;;;;13.10;6.60;;;;;;;3.79;86.21;98275.36;104597;1275;70112;-66
2022/04/06 07:12:26;;;;;;;14.00;6.60;;;;;;;3.93;85.39;98265.50;104616;1276;72162;-68
2022/04/06 07:15:16;;;;;;;13.60;5.90;;;;;;;4.06;84.47;98265.02;104916;1274;59811;-68
2022/04/06 07:18:06;;;;;;;14.00;6.60;;;;;;;4.19;84.34;98266.45;104881;1274;61297;-66
2022/04/06 07:20:54;;;;;;;13.90;5.90;;;;;;;4.32;84.28;98263.27;104871;1274;72347;-65
2022/04/06 07:23:44;;;;;;;16.50;6.70;;;;;;;4.34;82.78;98262.46;104815;1274;68262;-69
2022/04/06 07:26:32;;;;;;;16.30;7.70;;;;;;;4.25;82.90;98254.67;104835;1274;73427;-66
2022/04/06 07:29:20;;;;;;;13.80;6.60;;;;;;;4.26;83.15;98250.23;104781;1274;59541;-70
2022/04/06 07:32:09;;;;;;;15.50;7.20;;;;;;;4.21;82.79;98252.75;104718;1274;60470;-67
2022/04/06 07:34:57;;;;;;;14.40;7.00;;;;;;;4.14;82.63;98249.82;104837;1274;73868;-68
2022/04/06 07:37:49;;;;;;;13.10;6.60;;;;;;;4.04;82.44;98245.45;104583;1274;68027;-68
2022/04/06 07:40:37;;;;;;;16.40;7.30;;;;;;;3.91;82.70;98228.14;104530;1275;73579;-66
2022/04/06 07:43:25;;;;;;;13.60;6.50;;;;;;;4.14;82.97;98252.77;104722;1274;59611;-66
2022/04/06 07:46:14;;;;;;;18.20;6.70;;;;;;;4.25;82.57;98246.30;104609;1274;60632;-68
2022/04/06 07:49:02;;;;;;;14.80;5.70;;;;;;;4.49;82.15;98242.29;104869;1274;73624;-66
2022/04/06 07:51:50;;;;;;;14.90;6.60;;;;;;;4.66;80.90;98240.67;104907;1274;68981;-67
2022/04/06 07:54:38;;;;;;;14.70;6.40;;;;;;;4.75;79.75;98242.05;104781;1274;73123;-72
2022/04/06 07:57:28;;;;;;;11.40;5.50;;;;;;;4.90;80.10;98245.73;104799;1274;59658;-68
2022/04/06 08:00:17;;;;;;;13.70;6.00;;;;;;;4.95;78.88;98238.26;104966;1274;59955;-66
2022/04/06 08:03:06;;;;;;;13.50;5.40;;;;;;;4.95;78.35;98239.73;104613;1274;73782;-66
2022/04/06 08:05:53;;;;;;;11.70;4.10;;;;;;;4.81;76.85;98242.92;104645;1274;68268;-66
2022/04/06 08:08:42;;;;;;;9.50;4.00;;;;;;;4.68;75.34;98240.71;104446;1275;73011;-65
2022/04/06 08:11:30;;;;;;;11.50;4.50;;;;;;;4.62;75.14;98233.30;104914;1274;59769;-66
2022/04/06 08:14:19;;;;;;;10.60;4.60;;;;;;;4.70;75.08;98234.05;104745;1274;59658;-67
2022/04/06 08:17:07;;;;;;;9.30;4.00;;;;;;;4.68;73.83;98241.39;104686;1274;72625;-67
2022/04/06 08:19:55;;;;;;;11.10;3.90;;;;;;;4.60;72.98;98243.65;104771;1274;66589;-64
2022/04/06 08:23:05;;;;;;;9.20;4.60;;;;;;;4.63;73.73;98252.83;104613;1274;74621;-66
2022/04/06 08:25:54;;;;;;;12.40;4.30;;;;;;;4.72;73.58;98257.04;104695;1274;59685;-65
2022/04/06 08:29:00;;;;;;;16.20;5.00;;;;;;;4.75;73.99;98263.28;104662;1274;59825;-66
2022/04/06 08:31:49;;;;;;;25.60;5.40;;;;;;;4.83;73.22;98263.87;104629;1274;73744;-65
2022/04/06 08:34:37;;;;;;;15.50;4.20;;;;;;;4.93;73.15;98262.14;104518;1274;68169;-65
2022/04/06 08:37:30;;;;;;;14.90;4.50;;;;;;;5.05;72.23;98257.00;104608;1274;73170;-66
2022/04/06 08:40:17;;;;;;;10.70;3.70;;;;;;;5.14;70.60;98263.83;104663;1274;60467;-67
2022/04/06 08:43:08;;;;;;;8.70;3.60;;;;;;;5.20;69.03;98257.96;104617;1274;60037;-67
2022/04/06 08:45:56;;;;;;;8.70;3.40;;;;;;;5.41;67.86;98254.30;104511;1274;74579;-66
2022/04/06 08:48:48;;;;;;;8.80;3.20;;;;;;;5.70;66.98;98245.71;104653;1274;67707;-71
2022/04/06 08:51:38;;;;;;;9.10;3.50;;;;;;;5.96;66.25;98235.14;104677;1274;73916;-67
2022/04/06 08:54:27;;;;;;;8.30;3.20;;;;;;;6.29;65.47;98227.13;104712;1274;59635;-67
2022/04/06 08:57:18;;;;;;;8.50;3.00;;;;;;;6.52;64.33;98224.42;104704;1274;60609;-68
2022/04/06 09:00:10;;;;;;;8.90;2.70;;;;;;;6.40;62.54;98220.90;104823;1274;73504;-68
2022/04/06 09:02:58;;;;;;;9.70;3.70;;;;;;;6.20;63.62;98220.38;104540;1274;67814;-65
2022/04/06 09:05:59;;;;;;;7.40;2.80;;;;;;;6.09;62.51;98226.84;104325;1274;405430;-69
2022/04/06 09:08:48;;;;;;;7.30;2.40;;;;;;;5.76;60.78;98235.98;104505;1274;59736;-66
2022/04/06 09:11:42;;;;;;;8.20;2.70;;;;;;;5.57;61.98;98239.96;104708;1274;59685;-70
2022/04/06 09:14:32;;;;;;;8.70;2.60;;;;;;;5.29;63.12;98245.43;104687;1274;72808;-66
2022/04/06 09:17:20;;;;;;;7.80;2.40;;;;;;;5.09;63.41;98248.20;104580;1274;67324;-68
2022/04/06 09:20:10;;;;;;;8.50;2.70;;;;;;;4.74;66.84;98240.52;104657;1274;73619;-67
2022/04/06 09:23:08;;;;;;;8.30;2.80;;;;;;;4.54;70.30;98233.73;104632;1275;59767;-70
2022/04/06 09:26:03;;;;;;;7.20;2.60;;;;;;;4.49;72.83;98224.02;104938;1274;60403;-69
2022/04/06 09:28:56;;;;;;;8.40;3.10;;;;;;;4.43;75.50;98217.75;104830;1274;74005;-68
2022/04/06 09:31:44;;;;;;;7.70;2.80;;;;;;;4.52;75.87;98215.15;104551;1274;69727;-66
2022/04/06 09:34:33;;;;;;;8.00;2.60;;;;;;;4.62;75.54;98214.44;104685;1274;74535;-70
2022/04/06 09:37:23;;;;;;;8.60;2.80;;;;;;;4.72;74.97;98210.80;104608;1275;59780;-68
2022/04/06 09:40:12;;;;;;;8.60;3.10;;;;;;;4.71;74.43;98206.20;104703;1274;60325;-67
2022/04/06 09:43:00;;;;;;;8.10;3.00;;;;;;;4.75;74.45;98208.98;104679;1274;74834;-65
2022/04/06 09:48:56;;;;;;;6.60;1.50;;;;;;;4.48;73.22;98203.64;104616;1274;73611;-67
2022/04/06 09:51:50;;;;;;;6.30;1.60;;;;;;;4.29;74.36;98197.50;104868;1274;59661;-66
2022/04/06 09:54:42;;;;;;;7.40;2.60;;;;;;;4.08;76.84;98186.03;104937;1274;60984;-67
2022/04/06 09:57:38;;;;;;;8.20;2.40;;;;;;;3.99;77.80;98180.45;104534;1274;72108;-67
2022/04/06 10:00:30;;;;;;;9.90;2.90;;;;;;;3.86;79.70;98180.98;104620;1274;66863;-64
2022/04/06 10:03:21;;;;;;;8.30;2.90;;;;;;;3.74;80.78;98177.15;104586;1274;71663;-67
2022/04/06 10:06:11;;;;;;;8.10;3.20;;;;;;;3.80;82.04;98178.43;104618;1274;60226;-66
2022/04/06 10:09:02;;;;;;;10.10;3.70;;;;;;;3.81;82.30;98180.85;104580;1274;59672;-67
2022/04/06 10:11:51;;;;;;;9.00;3.20;;;;;;;3.76;83.41;98174.35;104706;1274;74802;-66
2022/04/06 10:14:39;;;;;;;8.40;3.20;;;;;;;3.76;84.37;98174.68;104617;1274;67065;-65
2022/04/06 10:17:31;;;;;;;9.10;3.80;;;;;;;3.79;84.32;98167.11;104692;1274;73235;-69
2022/04/06 10:20:27;;;;;;;7.30;3.30;;;;;;;3.86;84.57;98162.34;104669;1274;59727;-67
2022/04/06 10:24:11;;;;;;;6.70;2.40;;;;;;;3.85;84.23;98165.90;104617;1274;59778;-68
2022/04/06 10:27:35;;;;;;;7.90;2.60;;;;;;;3.67;85.50;98163.33;104637;1274;73564;-65
2022/04/06 10:30:26;;;;;;;7.30;3.00;;;;;;;3.57;86.98;98161.81;104522;1274;68448;-65
2022/04/06 10:33:21;;;;;;;7.30;3.10;;;;;;;3.48;87.50;98150.45;104586;1274;71771;-65
2022/04/06 10:36:29;;;;;;;8.30;3.30;;;;;;;3.46;87.97;98135.84;104580;1274;60005;-69
2022/04/06 10:39:20;;;;;;;7.60;3.10;;;;;;;3.40;88.92;98128.05;104915;1274;60379;-66
2022/04/06 10:42:19;;;;;;;7.70;2.70;;;;;;;3.28;89.62;98131.48;104613;1274;74075;-67
2022/04/06 10:45:26;;;;;;;7.40;2.50;;;;;;;3.20;90.41;98130.16;104600;1274;68122;-66
2022/04/06 10:48:22;;;;;;;9.80;2.90;;;;;;;3.16;90.72;98127.33;104649;1274;73782;-67
2022/04/06 10:51:33;;;;;;;7.60;2.80;;;;;;;3.17;90.76;98125.38;104684;1274;59533;-66
2022/04/06 10:54:22;;;;;;;6.20;2.30;;;;;;;3.15;91.31;98117.81;104446;1274;59902;-67
2022/04/06 10:57:10;;;;;;;6.00;2.20;;;;;;;3.16;91.60;98122.80;104868;1274;72054;-68
2022/04/06 11:00:18;;;;;;;7.00;2.50;;;;;;;3.14;91.99;98117.85;104422;1275;68731;-66
2022/04/06 11:03:18;;;;;;;6.90;2.70;;;;;;;3.16;92.92;98113.99;105151;1274;72959;-68
2022/04/06 11:06:07;;;;;;;7.70;3.40;;;;;;;3.19;93.22;98110.64;104630;1274;60320;-65
2022/04/06 11:12:11;;;;;;;7.90;3.20;;;;;;;3.11;94.14;98106.23;104503;1274;74266;-68
2022/04/06 11:14:59;;;;;;;8.20;3.30;;;;;;;3.06;95.25;98101.87;104860;1274;68392;-66
2022/04/06 11:17:48;;;;;;;8.40;3.40;;;;;;;3.02;95.56;98103.89;104733;1274;73419;-67
2022/04/06 11:20:36;;;;;;;8.10;3.40;;;;;;;2.99;96.48;98096.59;105062;1274;59659;-66
2022/04/06 11:23:29;;;;;;;7.70;3.40;;;;;;;3.00;96.64;98089.31;104705;1274;60147;-70
2022/04/06 11:26:17;;;;;;;7.80;3.10;;;;;;;3.02;97.06;98086.88;104560;1274;74749;-69
2022/04/06 11:29:05;;;;;;;8.60;3.40;;;;;;;3.07;97.62;98082.30;104826;1274;68545;-68
2022/04/06 11:31:53;;;;;;;6.70;2.50;;;;;;;3.12;97.95;98077.72;104877;1274;71947;-69
2022/04/06 11:34:41;;;;;;;7.20;3.30;;;;;;;3.16;98.27;98074.27;104625;1274;59716;-68
2022/04/06 11:37:29;;;;;;;8.60;3.10;;;;;;;3.20;98.08;98072.00;104689;1274;60723;-68
2022/04/06 11:40:21;;;;;;;8.00;3.30;;;;;;;3.28;98.07;98060.88;104786;1274;73856;-68
2022/04/06 11:43:10;;;;;;;7.50;3.00;;;;;;;3.44;98.47;98064.48;104820;1275;69933;-68
2022/04/06 11:45:58;;;;;;;8.00;2.90;;;;;;;3.53;98.60;98062.21;104856;1274;72374;-67
2022/04/06 11:48:46;;;;;;;7.60;3.50;;;;;;;3.66;98.10;98043.97;104786;1274;59844;-71
2022/04/06 11:51:34;;;;;;;7.80;3.30;;;;;;;3.90;97.54;98039.77;104634;1274;59943;-67
2022/04/06 11:54:24;;;;;;;9.50;3.50;;;;;;;3.98;97.21;98046.78;104592;1275;74462;-67
2022/04/06 11:57:15;;;;;;;9.70;3.30;;;;;;;4.06;97.56;98043.64;104842;1274;68661;-66
2022/04/06 12:00:09;;;;;;;7.80;3.30;;;;;;;4.06;97.24;98037.86;104511;1275;72969;-68
2022/04/06 12:02:57;;;;;;;7.30;3.30;;;;;;;4.07;96.76;98025.84;104658;1274;59712;-66
2022/04/06 12:05:48;;;;;;;7.20;3.00;;;;;;;4.07;97.18;98025.33;104634;1274;59953;-67
2022/04/06 12:08:38;;;;;;;9.50;4.20;;;;;;;4.03;98.03;98024.45;104589;1274;73862;-64
2022/04/06 12:11:26;;;;;;;9.20;4.20;;;;;;;4.10;98.10;98010.39;104580;1274;68585;-65
2022/04/06 12:14:14;;;;;;;8.70;3.80;;;;;;;4.13;98.15;98016.07;104846;1274;74398;-66
2022/04/06 12:17:03;;;;;;;8.00;3.50;;;;;;;4.17;98.44;98010.47;104860;1274;59795;-67
2022/04/06 12:19:51;;;;;;;7.90;3.30;;;;;;;4.24;97.94;98002.67;104673;1274;61342;-66
2022/04/06 12:22:39;;;;;;;7.80;3.30;;;;;;;4.26;97.18;97998.69;104646;1274;75033;-65
2022/04/06 12:25:32;;;;;;;7.70;3.60;;;;;;;4.24;97.75;97993.55;104828;1274;68771;-68
2022/04/06 12:28:24;;;;;;;9.90;4.10;;;;;;;4.29;98.30;97981.77;104662;1274;71553;-67
2022/04/06 12:31:12;;;;;;;9.00;4.40;;;;;;;4.30;98.96;97978.84;104718;1274;59763;-68
2022/04/06 12:34:00;;;;;;;9.70;4.60;;;;;;;4.32;99.29;97973.40;104621;1274;59701;-67
2022/04/06 12:36:49;;;;;;;8.80;4.60;;;;;;;4.37;99.67;97971.39;104699;1274;72443;-67
2022/04/06 12:39:48;;;;;;;10.10;4.90;;;;;;;4.50;99.50;97971.20;104474;1274;68469;-67
2022/04/06 12:42:38;;;;;;;8.90;4.00;;;;;;;4.64;99.46;97965.08;104598;1274;74589;-66
2022/04/06 12:45:26;;;;;;;11.20;4.90;;;;;;;4.76;98.86;97962.27;104669;1274;61387;-68
2022/04/06 12:48:20;;;;;;;11.80;4.90;;;;;;;4.88;98.92;97957.56;104662;1274;60363;-65
2022/04/06 12:51:27;;;;;;;10.50;5.20;;;;;;;4.96;98.35;97953.68;104985;1274;74541;-68
2022/04/06 12:54:17;;;;;;;9.60;4.70;;;;;;;5.00;98.59;97945.05;104635;1275;66998;-68
2022/04/06 12:57:19;;;;;;;14.60;5.80;;;;;;;4.98;99.05;97945.58;105019;1274;74911;-65
2022/04/06 13:00:18;;;;;;;19.00;7.10;;;;;;;5.00;99.43;97940.31;104900;1274;59758;-66
2022/04/06 13:03:08;;;;;;;23.40;6.70;;;;;;;5.13;99.49;97938.81;104709;1274;60802;-69
2022/04/06 13:05:56;;;;;;;31.10;8.60;;;;;;;5.27;99.19;97938.27;104615;1274;73559;-67
2022/04/06 13:08:44;;;;;;;29.90;8.00;;;;;;;5.32;99.19;97937.64;104873;1274;66829;-70
2022/04/06 13:11:31;;;;;;;31.20;7.90;;;;;;;5.47;99.09;97933.70;104699;1274;73461;-67
2022/04/06 13:14:20;;;;;;;22.40;7.00;;;;;;;5.59;98.91;97927.12;104585;1274;60003;-66
2022/04/06 13:17:08;;;;;;;21.60;7.90;;;;;;;5.61;98.64;97933.32;104653;1274;60390;-67
2022/04/06 13:19:58;;;;;;;15.40;6.10;;;;;;;5.74;98.71;97916.43;104657;1274;74400;-67
2022/04/06 13:22:48;;;;;;;21.90;8.10;;;;;;;5.78;99.01;97922.40;104599;1274;67515;-68
2022/04/06 13:25:42;;;;;;;16.20;8.00;;;;;;;5.90;99.13;97914.27;104651;1274;72349;-69
2022/04/06 13:28:32;;;;;;;14.80;7.80;;;;;;;6.14;98.64;97889.15;104842;1274;60065;-67